Time,TemperatureF,DewpointF,PressureIn,WindDirection,WindDirectionDegrees,WindSpeedMPH,WindSpeedGustMPH,Humidity,HourlyPrecipIn,Conditions,Clouds,dailyrainin,SoftwareType,DateUTC
2013-05-28 00:04:00,59.2,53.7,30.02,SSW,203,3.6,3.6,82,0.00,,,0.00,WUHU216HW,2013-05-28 07:04:00,
2013-05-28 00:09:00,59.0,53.6,30.02,South,180,1.1,3.6,82,0.00,,,0.00,WUHU216HW,2013-05-28 07:09:00,
2013-05-28 00:14:00,59.0,53.6,30.02,SSW,203,1.3,2.9,82,0.00,,,0.00,WUHU216HW,2013-05-28 07:14:00,
2013-05-28 00:19:00,59.0,53.6,30.02,South,180,0.7,2.9,82,0.00,,,0.00,WUHU216HW,2013-05-28 07:19:00,
2013-05-28 00:24:00,59.2,53.7,30.02,SSE,158,1.1,1.8,82,0.00,,,0.00,WUHU216HW,2013-05-28 07:24:00,
2013-05-28 00:29:00,59.2,53.7,30.02,SSW,203,1.8,2.0,82,0.00,,,0.00,WUHU216HW,2013-05-28 07:29:00,
2013-05-28 00:34:00,59.2,54.1,30.02,South,180,1.1,2.5,83,0.00,,,0.00,WUHU216HW,2013-05-28 07:34:00,
2013-05-28 00:39:00,59.0,53.9,30.02,South,180,1.1,2.7,83,0.00,,,0.00,WUHU216HW,2013-05-28 07:39:00,
2013-05-28 00:44:00,59.0,53.9,30.01,SSE,158,0.7,2.7,83,0.00,,,0.00,WUHU216HW,2013-05-28 07:44:00,
2013-05-28 00:49:00,59.2,53.7,30.01,SE,135,1.1,1.3,82,0.00,,,0.00,WUHU216HW,2013-05-28 07:49:00,
2013-05-28 00:54:00,59.2,54.1,30.01,SSE,158,1.3,3.4,83,0.00,,,0.00,WUHU216HW,2013-05-28 07:54:00,
2013-05-28 00:59:00,59.2,54.1,30.01,WSW,248,0.4,3.4,83,0.00,,,0.00,WUHU216HW,2013-05-28 07:59:00,
2013-05-28 01:04:00,59.0,53.9,30.01,SE,135,1.3,1.6,83,0.00,,,0.00,WUHU216HW,2013-05-28 08:04:00,
2013-05-28 01:09:00,59.0,53.9,30.00,South,180,0.2,1.6,83,0.00,,,0.00,WUHU216HW,2013-05-28 08:09:00,
2013-05-28 01:15:00,59.2,54.1,30.01,South,180,0.7,1.6,83,0.00,,,0.00,WUHU216HW,2013-05-28 08:15:00,
2013-05-28 01:20:00,59.2,54.1,30.01,South,180,0.4,1.1,83,0.00,,,0.00,WUHU216HW,2013-05-28 08:20:00,
2013-05-28 01:25:00,59.2,54.1,30.00,SW,225,1.1,4.5,83,0.00,,,0.00,WUHU216HW,2013-05-28 08:25:00,
2013-05-28 01:30:00,59.2,54.1,30.00,WSW,248,2.5,4.5,83,0.00,,,0.00,WUHU216HW,2013-05-28 08:30:00,
2013-05-28 01:35:00,59.2,54.1,30.00,South,180,1.8,4.0,83,0.00,,,0.00,WUHU216HW,2013-05-28 08:35:00,
2013-05-28 01:40:00,59.2,54.1,30.00,ESE,113,2.5,4.0,83,0.00,,,0.00,WUHU216HW,2013-05-28 08:40:00,
2013-05-28 01:45:00,59.2,54.1,30.00,SSW,203,0.7,2.5,83,0.00,,,0.00,WUHU216HW,2013-05-28 08:45:00,
2013-05-28 01:50:00,59.2,54.1,30.00,South,180,1.8,4.0,83,0.00,,,0.00,WUHU216HW,2013-05-28 08:50:00,
2013-05-28 01:55:00,59.0,53.9,30.00,SSE,158,1.1,4.0,83,0.00,,,0.00,WUHU216HW,2013-05-28 08:55:00,
2013-05-28 02:00:00,59.2,54.1,30.01,South,180,1.8,3.1,83,0.00,,,0.00,WUHU216HW,2013-05-28 09:00:00,
2013-05-28 02:05:00,59.2,54.1,30.00,SSE,158,1.6,2.7,83,0.00,,,0.00,WUHU216HW,2013-05-28 09:05:00,
2013-05-28 02:10:00,59.4,54.3,30.00,South,180,0.7,1.8,83,0.00,,,0.00,WUHU216HW,2013-05-28 09:10:00,
2013-05-28 02:15:00,59.2,54.1,30.00,South,180,2.5,3.1,83,0.00,,,0.00,WUHU216HW,2013-05-28 09:15:00,
2013-05-28 02:20:00,59.2,54.1,30.00,SE,135,1.3,3.8,83,0.00,,,0.00,WUHU216HW,2013-05-28 09:20:00,
2013-05-28 02:25:00,59.2,54.1,30.00,South,180,2.5,3.8,83,0.00,,,0.00,WUHU216HW,2013-05-28 09:25:00,
2013-05-28 02:30:00,59.2,54.4,30.00,South,180,2.5,2.5,84,0.00,,,0.00,WUHU216HW,2013-05-28 09:30:00,
2013-05-28 02:36:00,59.2,54.1,30.00,SSW,203,0.7,2.5,83,0.00,,,0.00,WUHU216HW,2013-05-28 09:36:00,
2013-05-28 02:41:00,59.2,54.1,30.00,SE,135,3.4,3.4,83,0.00,,,0.00,WUHU216HW,2013-05-28 09:41:00,
2013-05-28 02:46:00,59.2,54.1,30.00,SSE,158,1.1,3.4,83,0.00,,,0.00,WUHU216HW,2013-05-28 09:46:00,
2013-05-28 02:51:00,59.2,54.1,29.99,South,180,1.3,1.8,83,0.00,,,0.00,WUHU216HW,2013-05-28 09:51:00,
2013-05-28 02:56:00,59.0,53.9,29.99,SE,135,1.8,2.2,83,0.00,,,0.00,WUHU216HW,2013-05-28 09:56:00,
2013-05-28 03:01:00,59.0,53.9,29.99,SW,225,1.6,2.5,83,0.00,,,0.00,WUHU216HW,2013-05-28 10:01:00,
2013-05-28 03:06:00,59.0,53.9,29.99,SSE,158,0.9,2.5,83,0.00,,,0.00,WUHU216HW,2013-05-28 10:06:00,
2013-05-28 03:11:00,59.0,53.9,29.99,SSE,158,1.1,2.9,83,0.00,,,0.00,WUHU216HW,2013-05-28 10:11:00,
2013-05-28 03:16:00,59.0,53.9,30.00,SSE,158,1.6,2.9,83,0.00,,,0.00,WUHU216HW,2013-05-28 10:16:00,
2013-05-28 03:21:00,59.0,53.9,29.99,SSE,158,2.0,3.1,83,0.00,,,0.00,WUHU216HW,2013-05-28 10:21:00,
2013-05-28 03:26:00,59.0,53.9,29.99,South,180,0.4,3.1,83,0.00,,,0.00,WUHU216HW,2013-05-28 10:26:00,
2013-05-28 03:31:00,59.0,53.9,29.99,SSE,158,0.9,2.7,83,0.00,,,0.00,WUHU216HW,2013-05-28 10:31:00,
2013-05-28 03:36:00,59.0,53.9,29.99,SE,135,1.1,2.7,83,0.00,,,0.00,WUHU216HW,2013-05-28 10:36:00,
2013-05-28 03:41:00,59.0,53.9,29.98,South,180,0.7,3.8,83,0.00,,,0.00,WUHU216HW,2013-05-28 10:41:00,
2013-05-28 03:46:00,59.0,53.9,29.98,SSW,203,1.3,3.8,83,0.00,,,0.00,WUHU216HW,2013-05-28 10:46:00,
2013-05-28 03:51:00,59.0,53.9,29.98,WSW,248,0.4,2.2,83,0.00,,,0.00,WUHU216HW,2013-05-28 10:51:00,
2013-05-28 03:56:00,59.0,53.9,29.99,WSW,248,1.6,2.7,83,0.00,,,0.00,WUHU216HW,2013-05-28 10:56:00,
2013-05-28 04:01:00,59.0,53.9,29.99,SSW,203,2.2,2.7,83,0.00,,,0.00,WUHU216HW,2013-05-28 11:01:00,
2013-05-28 04:06:00,59.0,53.9,29.99,SSE,158,1.1,2.5,83,0.00,,,0.00,WUHU216HW,2013-05-28 11:06:00,
2013-05-28 04:12:00,59.0,53.9,29.99,SSW,203,2.2,3.1,83,0.00,,,0.00,WUHU216HW,2013-05-28 11:12:00,
2013-05-28 04:17:00,59.0,53.9,29.99,SSE,158,0.4,3.1,83,0.00,,,0.00,WUHU216HW,2013-05-28 11:17:00,
2013-05-28 04:22:00,59.0,53.9,29.99,WSW,248,1.3,2.0,83,0.00,,,0.00,WUHU216HW,2013-05-28 11:22:00,
2013-05-28 04:27:00,59.0,53.9,30.00,SSW,203,0.4,2.2,83,0.00,,,0.00,WUHU216HW,2013-05-28 11:27:00,
2013-05-28 04:32:00,59.0,53.9,29.99,South,180,0.7,2.2,83,0.00,,,0.00,WUHU216HW,2013-05-28 11:32:00,
2013-05-28 04:37:00,59.0,53.9,29.99,SSW,203,1.3,3.4,83,0.00,,,0.00,WUHU216HW,2013-05-28 11:37:00,
2013-05-28 04:42:00,59.0,53.9,29.99,SSW,203,0.2,1.6,83,0.00,,,0.00,WUHU216HW,2013-05-28 11:42:00,
2013-05-28 04:47:00,58.9,53.7,29.99,SSW,203,2.2,2.2,83,0.00,,,0.00,WUHU216HW,2013-05-28 11:47:00,
2013-05-28 04:52:00,58.9,53.7,30.00,South,180,1.3,2.2,83,0.00,,,0.00,WUHU216HW,2013-05-28 11:52:00,
2013-05-28 04:57:00,58.9,53.7,29.99,South,180,1.6,2.5,83,0.00,,,0.00,WUHU216HW,2013-05-28 11:57:00,
2013-05-28 05:02:00,58.7,53.6,29.98,South,180,0.9,2.5,83,0.00,,,0.00,WUHU216HW,2013-05-28 12:02:00,
2013-05-28 05:07:00,58.7,53.6,29.99,SSW,203,2.0,2.2,83,0.00,,,0.00,WUHU216HW,2013-05-28 12:07:00,
2013-05-28 05:12:00,58.7,53.6,29.99,SSW,203,0.4,2.0,83,0.00,,,0.00,WUHU216HW,2013-05-28 12:12:00,
2013-05-28 05:17:00,58.7,53.6,29.98,South,180,0.4,2.5,83,0.00,,,0.00,WUHU216HW,2013-05-28 12:17:00,
2013-05-28 05:22:00,58.7,53.6,29.99,South,180,2.0,2.5,83,0.00,,,0.00,WUHU216HW,2013-05-28 12:22:00,
2013-05-28 05:27:00,58.7,53.6,29.99,South,180,1.3,2.0,83,0.00,,,0.00,WUHU216HW,2013-05-28 12:27:00,
2013-05-28 05:32:00,58.7,53.6,29.99,South,180,1.1,1.8,83,0.00,,,0.00,WUHU216HW,2013-05-28 12:32:00,
2013-05-28 05:38:00,58.7,53.6,29.99,South,180,0.4,1.8,83,0.00,,,0.00,WUHU216HW,2013-05-28 12:38:00,
2013-05-28 05:43:00,58.5,53.6,29.98,SSE,158,2.0,2.0,84,0.00,,,0.00,WUHU216HW,2013-05-28 12:43:00,
2013-05-28 05:48:00,58.5,53.4,29.97,SSE,158,0.4,2.0,83,0.00,,,0.00,WUHU216HW,2013-05-28 12:48:00,
2013-05-28 05:53:00,58.5,53.4,29.98,SSW,203,0.2,1.3,83,0.00,,,0.00,WUHU216HW,2013-05-28 12:53:00,
2013-05-28 05:58:00,58.5,53.4,29.98,SW,225,0.9,1.8,83,0.00,,,0.00,WUHU216HW,2013-05-28 12:58:00,
2013-05-28 06:03:00,58.3,53.5,29.99,SSW,203,0.0,0.9,84,0.00,,,0.00,WUHU216HW,2013-05-28 13:03:00,
2013-05-28 06:08:00,58.3,53.5,29.98,SSE,158,0.4,0.4,84,0.00,,,0.00,WUHU216HW,2013-05-28 13:08:00,
2013-05-28 06:13:00,58.3,53.5,29.99,SSE,158,0.4,0.9,84,0.00,,,0.00,WUHU216HW,2013-05-28 13:13:00,
2013-05-28 06:18:00,58.7,53.8,29.98,SE,135,0.7,1.1,84,0.00,,,0.00,WUHU216HW,2013-05-28 13:18:00,
2013-05-28 06:23:00,58.7,53.8,29.98,South,180,1.1,2.0,84,0.00,,,0.00,WUHU216HW,2013-05-28 13:23:00,
2013-05-28 06:28:00,59.0,54.2,29.98,SE,135,0.4,2.0,84,0.00,,,0.00,WUHU216HW,2013-05-28 13:28:00,
2013-05-28 06:33:00,59.2,54.4,29.98,SSE,158,0.2,1.6,84,0.00,,,0.00,WUHU216HW,2013-05-28 13:33:00,
2013-05-28 06:38:00,59.2,54.4,29.99,SW,225,1.6,1.8,84,0.00,,,0.00,WUHU216HW,2013-05-28 13:38:00,
2013-05-28 06:43:00,59.4,54.3,29.99,SSE,158,1.1,1.8,83,0.00,,,0.00,WUHU216HW,2013-05-28 13:43:00,
2013-05-28 06:48:00,59.8,54.6,29.99,SSW,203,0.9,1.8,83,0.00,,,0.00,WUHU216HW,2013-05-28 13:48:00,
2013-05-28 06:53:00,59.8,54.6,29.99,South,180,1.1,2.5,83,0.00,,,0.00,WUHU216HW,2013-05-28 13:53:00,
2013-05-28 06:59:00,60.1,55.0,29.99,South,180,2.0,2.5,83,0.00,,,0.00,WUHU216HW,2013-05-28 13:59:00,
2013-05-28 07:04:00,60.7,55.5,30.00,South,180,0.7,2.7,83,0.00,,,0.00,WUHU216HW,2013-05-28 14:04:00,
2013-05-28 07:09:00,61.0,55.5,30.00,SSE,158,0.0,2.7,82,0.00,,,0.00,WUHU216HW,2013-05-28 14:09:00,
2013-05-28 07:14:00,61.7,56.2,30.00,SW,225,0.9,2.0,82,0.00,,,0.00,WUHU216HW,2013-05-28 14:14:00,
2013-05-28 07:19:00,62.3,56.0,29.99,SW,225,2.5,3.4,80,0.00,,,0.00,WUHU216HW,2013-05-28 14:19:00,
2013-05-28 07:24:00,62.1,55.5,29.99,SW,225,1.6,3.4,79,0.00,,,0.00,WUHU216HW,2013-05-28 14:24:00,
2013-05-28 07:29:00,62.3,55.6,29.99,SW,225,1.1,3.1,79,0.00,,,0.00,WUHU216HW,2013-05-28 14:29:00,
2013-05-28 07:34:00,62.3,55.6,29.99,SSW,203,0.9,3.1,79,0.00,,,0.00,WUHU216HW,2013-05-28 14:34:00,
2013-05-28 07:39:00,62.3,55.6,29.99,SSE,158,1.6,1.8,79,0.00,,,0.00,WUHU216HW,2013-05-28 14:39:00,
2013-05-28 07:44:00,62.6,56.0,30.00,SSW,203,2.5,2.9,79,0.00,,,0.00,WUHU216HW,2013-05-28 14:44:00,
2013-05-28 07:49:00,62.8,56.2,29.99,SSW,203,1.3,2.9,79,0.00,,,0.00,WUHU216HW,2013-05-28 14:49:00,
2013-05-28 07:54:00,62.8,55.8,30.00,SW,225,1.3,2.0,78,0.00,,,0.00,WUHU216HW,2013-05-28 14:54:00,
2013-05-28 07:59:00,63.0,56.0,30.00,SSW,203,2.7,2.7,78,0.00,,,0.00,WUHU216HW,2013-05-28 14:59:00,
2013-05-28 08:04:00,63.0,56.0,29.99,SW,225,1.8,2.7,78,0.00,,,0.00,WUHU216HW,2013-05-28 15:04:00,
2013-05-28 08:09:00,63.2,56.2,29.99,SSW,203,0.4,2.9,78,0.00,,,0.00,WUHU216HW,2013-05-28 15:09:00,
2013-05-28 08:14:00,63.4,56.0,29.99,SSE,158,2.7,2.9,77,0.00,,,0.00,WUHU216HW,2013-05-28 15:14:00,
2013-05-28 08:20:00,63.5,56.5,30.00,SSE,158,1.1,2.7,78,0.00,,,0.00,WUHU216HW,2013-05-28 15:20:00,
2013-05-28 08:25:00,64.1,56.7,30.00,South,180,3.1,3.1,77,0.00,,,0.00,WUHU216HW,2013-05-28 15:25:00,
2013-05-28 08:30:00,64.8,57.4,30.00,WNW,293,1.8,3.1,77,0.00,,,0.00,WUHU216HW,2013-05-28 15:30:00,
2013-05-28 08:35:00,65.5,57.8,29.99,SSE,158,2.0,2.5,76,0.01,,,0.01,WUHU216HW,2013-05-28 15:35:00,
2013-05-28 08:40:00,65.9,57.3,29.99,SSE,158,1.8,2.5,74,0.01,,,0.01,WUHU216HW,2013-05-28 15:40:00,
2013-05-28 08:45:00,66.6,58.1,29.99,SSE,158,1.8,2.5,74,0.01,,,0.01,WUHU216HW,2013-05-28 15:45:00,
2013-05-28 08:50:00,67.3,58.4,30.00,SW,225,1.3,2.2,73,0.01,,,0.01,WUHU216HW,2013-05-28 15:50:00,
2013-05-28 08:55:00,67.0,57.6,30.01,SSW,203,3.4,3.4,72,0.01,,,0.01,WUHU216HW,2013-05-28 15:55:00,
2013-05-28 09:00:00,66.2,56.9,30.01,SE,135,0.4,3.4,72,0.01,,,0.01,WUHU216HW,2013-05-28 16:00:00,
2013-05-28 09:05:00,66.8,57.9,30.01,SSW,203,2.5,2.5,73,0.01,,,0.01,WUHU216HW,2013-05-28 16:05:00,
2013-05-28 09:10:00,67.9,58.1,30.01,South,180,1.8,3.8,71,0.01,,,0.01,WUHU216HW,2013-05-28 16:10:00,
2013-05-28 09:15:00,68.8,59.0,30.01,SSE,158,2.5,3.8,71,0.01,,,0.01,WUHU216HW,2013-05-28 16:15:00,
2013-05-28 09:20:00,71.5,60.8,30.01,SE,135,0.9,3.1,69,0.01,,,0.01,WUHU216HW,2013-05-28 16:20:00,
2013-05-28 09:25:00,73.8,61.3,30.01,SE,135,0.0,3.1,65,0.01,,,0.01,WUHU216HW,2013-05-28 16:25:00,
2013-05-28 09:30:00,75.1,61.2,30.01,South,180,1.6,2.7,62,0.00,,,0.01,WUHU216HW,2013-05-28 16:30:00,
2013-05-28 09:35:00,75.8,61.4,30.01,North,0,0.7,2.7,61,0.00,,,0.01,WUHU216HW,2013-05-28 16:35:00,
2013-05-28 09:40:00,77.0,62.6,30.00,SW,225,1.3,2.5,61,0.00,,,0.01,WUHU216HW,2013-05-28 16:40:00,
2013-05-28 09:45:00,78.1,62.2,30.00,SSW,203,0.9,2.5,58,0.00,,,0.01,WUHU216HW,2013-05-28 16:45:00,
2013-05-28 09:50:00,77.6,59.6,30.00,SE,135,1.8,2.7,54,0.00,,,0.01,WUHU216HW,2013-05-28 16:50:00,
2013-05-28 09:55:00,76.0,59.6,30.00,East,90,1.1,4.0,57,0.00,,,0.01,WUHU216HW,2013-05-28 16:55:00,
2013-05-28 10:01:00,75.2,59.0,30.00,NW,315,1.1,4.3,57,0.00,,,0.01,WUHU216HW,2013-05-28 17:01:00,
2013-05-28 10:06:00,74.5,58.8,29.99,WSW,248,3.4,4.3,58,0.00,,,0.01,WUHU216HW,2013-05-28 17:06:00,
2013-05-28 10:11:00,74.2,58.9,29.99,SW,225,2.2,3.4,59,0.00,,,0.01,WUHU216HW,2013-05-28 17:11:00,
2013-05-28 10:16:00,73.8,58.1,30.00,SSE,158,0.9,2.7,58,0.00,,,0.01,WUHU216HW,2013-05-28 17:16:00,
2013-05-28 10:21:00,73.4,58.1,30.00,NNW,338,1.1,2.7,59,0.00,,,0.01,WUHU216HW,2013-05-28 17:21:00,
2013-05-28 10:26:00,73.8,58.5,30.00,SSW,203,0.7,1.1,59,0.00,,,0.01,WUHU216HW,2013-05-28 17:26:00,
2013-05-28 10:31:00,73.4,58.1,30.00,SW,225,0.4,1.1,59,0.00,,,0.01,WUHU216HW,2013-05-28 17:31:00,
2013-05-28 10:36:00,73.6,58.3,30.00,SE,135,1.1,1.8,59,0.00,,,0.01,WUHU216HW,2013-05-28 17:36:00,
2013-05-28 10:41:00,74.2,58.4,30.00,WNW,293,0.4,2.2,58,0.00,,,0.01,WUHU216HW,2013-05-28 17:41:00,
2013-05-28 10:46:00,73.8,58.1,30.00,SSE,158,1.6,2.5,58,0.00,,,0.01,WUHU216HW,2013-05-28 17:46:00,
2013-05-28 10:51:00,73.8,58.1,30.00,NE,45,2.5,2.5,58,0.00,,,0.01,WUHU216HW,2013-05-28 17:51:00,
2013-05-28 10:56:00,73.8,57.5,30.00,NW,315,0.7,2.5,57,0.00,,,0.01,WUHU216HW,2013-05-28 17:56:00,
2013-05-28 11:01:00,73.6,57.9,30.00,SSE,158,0.4,2.5,58,0.00,,,0.01,WUHU216HW,2013-05-28 18:01:00,
2013-05-28 11:06:00,73.6,57.9,30.00,NW,315,1.3,1.3,58,0.00,,,0.01,WUHU216HW,2013-05-28 18:06:00,
2013-05-28 11:11:00,73.3,57.0,30.00,NW,315,0.7,1.3,57,0.00,,,0.01,WUHU216HW,2013-05-28 18:11:00,
2013-05-28 11:16:00,73.1,56.9,30.00,NW,315,1.1,1.1,57,0.00,,,0.01,WUHU216HW,2013-05-28 18:16:00,
2013-05-28 11:22:00,73.4,56.2,30.00,NE,45,0.7,1.8,55,0.00,,,0.01,WUHU216HW,2013-05-28 18:22:00,
2013-05-28 11:27:00,74.2,57.4,30.00,WNW,293,1.1,1.8,56,0.00,,,0.01,WUHU216HW,2013-05-28 18:27:00,
2013-05-28 11:32:00,75.2,58.0,30.00,WSW,248,0.0,1.1,55,0.00,,,0.01,WUHU216HW,2013-05-28 18:32:00,
2013-05-28 11:37:00,76.1,58.2,30.00,SSE,158,1.1,1.6,54,0.00,,,0.01,WUHU216HW,2013-05-28 18:37:00,
2013-05-28 11:42:00,76.7,58.2,30.00,WSW,248,1.1,2.7,53,0.00,,,0.01,WUHU216HW,2013-05-28 18:42:00,
2013-05-28 11:47:00,76.9,57.9,30.00,NW,315,1.1,2.7,52,0.00,,,0.01,WUHU216HW,2013-05-28 18:47:00,
2013-05-28 11:52:00,76.0,57.1,30.00,NW,315,0.4,2.2,52,0.00,,,0.01,WUHU216HW,2013-05-28 18:52:00,
2013-05-28 11:57:00,75.1,56.3,30.01,NW,315,0.0,1.6,52,0.00,,,0.01,WUHU216HW,2013-05-28 18:57:00,
2013-05-28 12:02:00,74.5,56.3,30.00,SE,135,0.4,0.9,53,0.00,,,0.01,WUHU216HW,2013-05-28 19:02:00,
2013-05-28 12:07:00,74.5,55.7,30.00,ENE,68,0.9,1.8,52,0.00,,,0.01,WUHU216HW,2013-05-28 19:07:00,
2013-05-28 12:12:00,75.1,56.3,30.00,ENE,68,1.1,1.8,52,0.00,,,0.01,WUHU216HW,2013-05-28 19:12:00,
2013-05-28 12:17:00,76.1,56.8,30.00,NNW,338,0.4,2.5,51,0.00,,,0.01,WUHU216HW,2013-05-28 19:17:00,
2013-05-28 12:22:00,76.9,56.9,30.00,NW,315,1.8,2.5,50,0.00,,,0.01,WUHU216HW,2013-05-28 19:22:00,
2013-05-28 12:27:00,76.5,56.6,30.00,NW,315,0.7,1.8,50,0.00,,,0.01,WUHU216HW,2013-05-28 19:27:00,
2013-05-28 12:32:00,76.1,56.8,30.00,NE,45,1.1,1.8,51,0.00,,,0.01,WUHU216HW,2013-05-28 19:32:00,
2013-05-28 12:37:00,76.0,56.6,30.00,NW,315,1.1,2.0,51,0.00,,,0.01,WUHU216HW,2013-05-28 19:37:00,
2013-05-28 12:42:00,76.0,56.1,30.00,West,270,1.8,2.0,50,0.00,,,0.01,WUHU216HW,2013-05-28 19:42:00,
2013-05-28 12:47:00,76.0,55.4,30.00,West,270,0.4,2.0,49,0.00,,,0.01,WUHU216HW,2013-05-28 19:47:00,
2013-05-28 12:52:00,76.1,55.0,30.00,South,180,2.7,2.7,48,0.00,,,0.01,WUHU216HW,2013-05-28 19:52:00,
2013-05-28 12:58:00,76.9,56.9,30.00,NW,315,1.1,2.7,50,0.00,,,0.01,WUHU216HW,2013-05-28 19:58:00,
2013-05-28 13:03:00,77.6,56.4,29.99,NNE,23,1.1,3.1,48,0.00,,,0.01,WUHU216HW,2013-05-28 20:03:00,
2013-05-28 13:08:00,78.1,56.2,29.99,South,180,0.9,3.1,47,0.00,,,0.01,WUHU216HW,2013-05-28 20:08:00,
2013-05-28 13:13:00,78.5,57.2,29.99,WNW,293,0.9,1.1,48,0.00,,,0.01,WUHU216HW,2013-05-28 20:13:00,
2013-05-28 13:18:00,78.8,55.0,29.99,ENE,68,1.3,3.6,44,0.00,,,0.01,WUHU216HW,2013-05-28 20:18:00,
2013-05-28 13:23:00,79.0,56.4,29.99,WSW,248,0.9,3.6,46,0.00,,,0.01,WUHU216HW,2013-05-28 20:23:00,
2013-05-28 13:28:00,78.7,56.7,29.99,North,0,1.1,3.4,47,0.00,,,0.01,WUHU216HW,2013-05-28 20:28:00,
2013-05-28 13:33:00,77.8,55.9,29.99,WNW,293,1.3,3.4,47,0.00,,,0.01,WUHU216HW,2013-05-28 20:33:00,
2013-05-28 13:38:00,77.4,55.5,29.99,NW,315,1.1,1.6,47,0.00,,,0.01,WUHU216HW,2013-05-28 20:38:00,
2013-05-28 13:43:00,77.6,54.5,29.99,SW,225,2.5,2.5,45,0.00,,,0.01,WUHU216HW,2013-05-28 20:43:00,
2013-05-28 13:48:00,78.1,56.2,29.98,East,90,0.4,2.5,47,0.00,,,0.01,WUHU216HW,2013-05-28 20:48:00,
2013-05-28 13:53:00,78.5,56.5,29.98,SSW,203,1.6,3.4,47,0.00,,,0.01,WUHU216HW,2013-05-28 20:53:00,
2013-05-28 13:58:00,78.8,55.6,29.98,SSE,158,4.5,4.5,45,0.00,,,0.01,WUHU216HW,2013-05-28 20:58:00,
2013-05-28 14:03:00,79.2,54.7,29.98,ESE,113,0.4,4.5,43,0.00,,,0.01,WUHU216HW,2013-05-28 21:03:00,
2013-05-28 14:08:00,79.6,56.3,29.98,WNW,293,1.3,3.4,45,0.00,,,0.01,WUHU216HW,2013-05-28 21:08:00,
2013-05-28 14:13:00,79.6,56.3,29.98,NNW,338,0.4,1.8,45,0.00,,,0.01,WUHU216HW,2013-05-28 21:13:00,
2013-05-28 14:19:00,79.6,56.3,29.98,SSW,203,0.2,2.2,45,0.00,,,0.01,WUHU216HW,2013-05-28 21:19:00,
2013-05-28 14:24:00,79.6,55.6,29.98,NW,315,1.1,2.2,44,0.00,,,0.01,WUHU216HW,2013-05-28 21:24:00,
2013-05-28 14:29:00,79.7,55.8,29.98,ENE,68,0.9,1.8,44,0.00,,,0.01,WUHU216HW,2013-05-28 21:29:00,
2013-05-28 14:34:00,79.9,56.0,29.97,WNW,293,0.9,1.6,44,0.00,,,0.01,WUHU216HW,2013-05-28 21:34:00,
2013-05-28 14:39:00,79.9,56.0,29.97,South,180,0.2,1.6,44,0.00,,,0.01,WUHU216HW,2013-05-28 21:39:00,
2013-05-28 14:44:00,79.4,55.5,29.97,NW,315,1.8,2.7,44,0.00,,,0.01,WUHU216HW,2013-05-28 21:44:00,
2013-05-28 14:49:00,79.4,55.5,29.97,NNW,338,0.9,2.7,44,0.00,,,0.01,WUHU216HW,2013-05-28 21:49:00,
2013-05-28 14:54:00,79.4,54.9,29.97,WNW,293,1.3,2.7,43,0.00,,,0.01,WUHU216HW,2013-05-28 21:54:00,
2013-05-28 14:59:00,79.2,54.7,29.97,NNW,338,1.8,2.7,43,0.00,,,0.01,WUHU216HW,2013-05-28 21:59:00,
2013-05-28 15:04:00,79.2,55.4,29.97,NNW,338,0.4,2.7,44,0.00,,,0.01,WUHU216HW,2013-05-28 22:04:00,
2013-05-28 15:09:00,79.4,55.5,29.96,NNW,338,0.4,2.9,44,0.00,,,0.01,WUHU216HW,2013-05-28 22:09:00,
2013-05-28 15:14:00,79.4,54.9,29.96,NNW,338,0.4,2.9,43,0.00,,,0.01,WUHU216HW,2013-05-28 22:14:00,
2013-05-28 15:19:00,79.6,55.1,29.96,NNW,338,1.8,2.5,43,0.00,,,0.01,WUHU216HW,2013-05-28 22:19:00,
2013-05-28 15:24:00,79.7,55.2,29.96,NNW,338,0.9,2.5,43,0.00,,,0.01,WUHU216HW,2013-05-28 22:24:00,
2013-05-28 15:29:00,79.6,54.5,29.96,NE,45,0.4,2.2,42,0.00,,,0.01,WUHU216HW,2013-05-28 22:29:00,
2013-05-28 15:34:00,79.6,54.5,29.96,NW,315,1.8,2.2,42,0.00,,,0.01,WUHU216HW,2013-05-28 22:34:00,
2013-05-28 15:39:00,79.4,54.3,29.96,NE,45,0.9,2.5,42,0.00,,,0.01,WUHU216HW,2013-05-28 22:39:00,
2013-05-28 15:44:00,79.6,54.5,29.96,NW,315,1.3,2.5,42,0.00,,,0.01,WUHU216HW,2013-05-28 22:44:00,
2013-05-28 15:49:00,79.4,53.6,29.96,NW,315,1.6,2.7,41,0.00,,,0.01,WUHU216HW,2013-05-28 22:49:00,
2013-05-28 15:55:00,79.2,53.5,29.95,NNW,338,1.8,2.7,41,0.00,,,0.01,WUHU216HW,2013-05-28 22:55:00,
2013-05-28 16:00:00,79.2,54.1,29.95,NNW,338,0.4,2.2,42,0.00,,,0.01,WUHU216HW,2013-05-28 23:00:00,
2013-05-28 16:05:00,79.4,53.0,29.96,ENE,68,2.7,2.7,40,0.00,,,0.01,WUHU216HW,2013-05-28 23:05:00,
2013-05-28 16:10:00,79.4,54.3,29.96,NNW,338,1.1,2.7,42,0.00,,,0.01,WUHU216HW,2013-05-28 23:10:00,
2013-05-28 16:15:00,79.2,54.1,29.95,ESE,113,0.4,2.0,42,0.00,,,0.01,WUHU216HW,2013-05-28 23:15:00,
2013-05-28 16:20:00,79.2,54.1,29.95,WNW,293,0.9,2.0,42,0.00,,,0.01,WUHU216HW,2013-05-28 23:20:00,
2013-05-28 16:25:00,79.4,54.3,29.95,NW,315,1.8,3.4,42,0.00,,,0.01,WUHU216HW,2013-05-28 23:25:00,
2013-05-28 16:30:00,79.2,54.1,29.95,WNW,293,2.0,3.4,42,0.00,,,0.01,WUHU216HW,2013-05-28 23:30:00,
2013-05-28 16:35:00,79.0,53.9,29.95,North,0,1.8,3.1,42,0.00,,,0.01,WUHU216HW,2013-05-28 23:35:00,
2013-05-28 16:40:00,79.0,53.9,29.95,WNW,293,2.0,3.4,42,0.00,,,0.01,WUHU216HW,2013-05-28 23:40:00,
2013-05-28 16:45:00,78.8,53.8,29.94,SW,225,3.1,3.4,42,0.00,,,0.01,WUHU216HW,2013-05-28 23:45:00,
2013-05-28 16:50:00,78.8,54.4,29.94,NW,315,0.4,3.1,43,0.00,,,0.01,WUHU216HW,2013-05-28 23:50:00,
2013-05-28 16:55:00,79.0,54.5,29.94,West,270,3.6,3.6,43,0.00,,,0.01,WUHU216HW,2013-05-28 23:55:00,
2013-05-28 17:00:00,78.8,54.4,29.94,ENE,68,5.1,5.1,43,0.00,,,0.01,WUHU216HW,2013-05-29 00:00:00,
2013-05-28 17:06:00,78.7,54.8,29.93,WNW,293,0.7,5.1,44,0.00,,,0.01,WUHU216HW,2013-05-29 00:06:00,
2013-05-28 17:11:00,78.7,54.3,29.93,NW,315,1.1,2.5,43,0.00,,,0.01,WUHU216HW,2013-05-29 00:11:00,
2013-05-28 17:16:00,78.5,53.5,29.93,North,0,1.1,2.9,42,0.00,,,0.01,WUHU216HW,2013-05-29 00:16:00,
2013-05-28 17:21:00,78.1,54.4,29.93,West,270,0.4,2.9,44,0.00,,,0.01,WUHU216HW,2013-05-29 00:21:00,
2013-05-28 17:26:00,78.1,53.1,29.92,South,180,1.3,1.8,42,0.00,,,0.01,WUHU216HW,2013-05-29 00:26:00,
2013-05-28 17:31:00,78.1,54.4,29.92,NW,315,2.2,2.5,44,0.00,,,0.01,WUHU216HW,2013-05-29 00:31:00,
2013-05-28 17:36:00,78.1,53.1,29.92,NE,45,3.1,3.1,42,0.00,,,0.01,WUHU216HW,2013-05-29 00:36:00,
2013-05-28 17:41:00,77.9,53.0,29.92,WNW,293,2.7,3.4,42,0.00,,,0.01,WUHU216HW,2013-05-29 00:41:00,
2013-05-28 17:46:00,77.9,53.6,29.92,North,0,0.4,3.4,43,0.00,,,0.01,WUHU216HW,2013-05-29 00:46:00,
2013-05-28 17:51:00,77.8,52.8,29.92,NW,315,1.8,2.2,42,0.00,,,0.01,WUHU216HW,2013-05-29 00:51:00,
2013-05-28 17:56:00,77.8,52.8,29.92,NW,315,0.7,2.5,42,0.00,,,0.01,WUHU216HW,2013-05-29 00:56:00,
2013-05-28 18:01:00,77.8,52.8,29.91,ENE,68,1.3,2.5,42,0.00,,,0.01,WUHU216HW,2013-05-29 01:01:00,
2013-05-28 18:06:00,77.9,53.0,29.91,NW,315,1.1,2.0,42,0.00,,,0.01,WUHU216HW,2013-05-29 01:06:00,
2013-05-28 18:11:00,77.8,52.8,29.91,NNW,338,0.2,2.0,42,0.00,,,0.01,WUHU216HW,2013-05-29 01:11:00,
2013-05-28 18:16:00,77.8,52.8,29.91,NNW,338,0.7,1.8,42,0.00,,,0.01,WUHU216HW,2013-05-29 01:16:00,
2013-05-28 18:22:00,77.6,52.7,29.91,WNW,293,0.9,1.8,42,0.00,,,0.01,WUHU216HW,2013-05-29 01:22:00,
2013-05-28 18:27:00,77.6,52.7,29.91,NW,315,0.4,1.3,42,0.00,,,0.01,WUHU216HW,2013-05-29 01:27:00,
2013-05-28 18:32:00,77.4,52.5,29.91,NW,315,0.0,1.8,42,0.00,,,0.01,WUHU216HW,2013-05-29 01:32:00,
2013-05-28 18:37:00,77.4,52.5,29.91,WNW,293,0.4,3.4,42,0.00,,,0.01,WUHU216HW,2013-05-29 01:37:00,
2013-05-28 18:42:00,77.4,52.5,29.91,WNW,293,0.4,3.4,42,0.00,,,0.01,WUHU216HW,2013-05-29 01:42:00,
2013-05-28 18:47:00,77.4,52.5,29.91,WNW,293,0.2,1.6,42,0.00,,,0.01,WUHU216HW,2013-05-29 01:47:00,
2013-05-28 18:52:00,77.2,52.3,29.91,NW,315,0.4,1.6,42,0.00,,,0.01,WUHU216HW,2013-05-29 01:52:00,
2013-05-28 18:57:00,77.0,52.2,29.91,East,90,0.4,0.4,42,0.00,,,0.01,WUHU216HW,2013-05-29 01:57:00,
2013-05-28 19:02:00,76.7,52.5,29.91,NW,315,0.0,1.1,43,0.00,,,0.01,WUHU216HW,2013-05-29 02:02:00,
2013-05-28 19:07:00,76.5,52.9,29.90,NW,315,0.0,1.1,44,0.00,,,0.01,WUHU216HW,2013-05-29 02:07:00,
2013-05-28 19:12:00,76.3,52.7,29.91,NW,315,0.0,1.1,44,0.00,,,0.01,WUHU216HW,2013-05-29 02:12:00,
2013-05-28 19:17:00,76.3,52.7,29.91,NW,315,1.3,1.3,44,0.00,,,0.01,WUHU216HW,2013-05-29 02:17:00,
2013-05-28 19:22:00,76.3,52.1,29.91,North,0,0.4,1.8,43,0.00,,,0.01,WUHU216HW,2013-05-29 02:22:00,
2013-05-28 19:27:00,76.5,52.3,29.91,NW,315,0.0,1.8,43,0.00,,,0.01,WUHU216HW,2013-05-29 02:27:00,
2013-05-28 19:32:00,76.5,52.3,29.91,SE,135,0.9,0.9,43,0.00,,,0.01,WUHU216HW,2013-05-29 02:32:00,
2013-05-28 19:37:00,76.5,52.3,29.91,NW,315,0.4,1.1,43,0.00,,,0.01,WUHU216HW,2013-05-29 02:37:00,
2013-05-28 19:43:00,76.5,52.3,29.91,NNW,338,0.2,1.1,43,0.00,,,0.01,WUHU216HW,2013-05-29 02:43:00,
2013-05-28 19:48:00,76.3,52.1,29.91,North,0,0.0,1.8,43,0.00,,,0.01,WUHU216HW,2013-05-29 02:48:00,
2013-05-28 19:53:00,76.0,51.9,29.91,NW,315,0.4,1.8,43,0.00,,,0.01,WUHU216HW,2013-05-29 02:53:00,
2013-05-28 19:58:00,75.8,52.3,29.91,NW,315,0.0,0.4,44,0.00,,,0.01,WUHU216HW,2013-05-29 02:58:00,
2013-05-28 20:03:00,75.2,52.4,29.92,SE,135,0.4,2.0,45,0.00,,,0.01,WUHU216HW,2013-05-29 03:03:00,
2013-05-28 20:08:00,74.7,53.1,29.92,SE,135,1.6,2.0,47,0.00,,,0.01,WUHU216HW,2013-05-29 03:08:00,
2013-05-28 20:13:00,74.3,53.4,29.92,SE,135,0.4,2.0,48,0.00,,,0.01,WUHU216HW,2013-05-29 03:13:00,
2013-05-28 20:18:00,74.0,53.6,29.92,SSW,203,0.4,2.0,49,0.00,,,0.01,WUHU216HW,2013-05-29 03:18:00,
2013-05-28 20:23:00,73.4,53.6,29.92,SE,135,0.4,1.8,50,0.00,,,0.01,WUHU216HW,2013-05-29 03:23:00,
2013-05-28 20:28:00,73.1,53.3,29.92,South,180,1.1,1.1,50,0.00,,,0.01,WUHU216HW,2013-05-29 03:28:00,
2013-05-28 20:33:00,72.7,53.5,29.92,SSW,203,0.7,2.0,51,0.00,,,0.01,WUHU216HW,2013-05-29 03:33:00,
2013-05-28 20:38:00,72.4,53.2,29.93,South,180,0.4,2.0,51,0.00,,,0.01,WUHU216HW,2013-05-29 03:38:00,
2013-05-28 20:43:00,72.0,53.4,29.92,West,270,0.4,2.0,52,0.00,,,0.01,WUHU216HW,2013-05-29 03:43:00,
2013-05-28 20:48:00,71.6,53.6,29.93,SE,135,0.7,2.9,53,0.00,,,0.01,WUHU216HW,2013-05-29 03:48:00,
2013-05-28 20:53:00,71.3,53.2,29.92,SE,135,0.0,2.9,53,0.00,,,0.01,WUHU216HW,2013-05-29 03:53:00,
2013-05-28 20:58:00,70.9,52.9,29.92,SE,135,0.0,0.4,53,0.00,,,0.01,WUHU216HW,2013-05-29 03:58:00,
2013-05-28 21:01:00,70.9,52.9,29.92,ESE,113,0.4,0.4,53,0.00,,,0.01,WUHU216HW,2013-05-29 04:01:00,
2013-05-28 21:02:00,70.7,53.2,29.92,SE,135,1.3,2.9,54,0.00,,,0.01,WUHU216HW,2013-05-29 04:02:00,
2013-05-28 21:07:00,70.6,53.1,29.92,WSW,248,0.0,2.9,54,0.00,,,0.01,WUHU216HW,2013-05-29 04:07:00,
2013-05-28 21:12:00,70.2,53.3,29.93,South,180,0.9,2.7,55,0.00,,,0.01,WUHU216HW,2013-05-29 04:12:00,
2013-05-28 21:17:00,70.0,52.6,29.92,SSE,158,0.4,1.8,54,0.00,,,0.01,WUHU216HW,2013-05-29 04:17:00,
2013-05-28 21:22:00,69.8,52.4,29.92,SSE,158,0.4,1.8,54,0.00,,,0.01,WUHU216HW,2013-05-29 04:22:00,
2013-05-28 21:27:00,69.7,52.3,29.93,SSE,158,0.9,1.1,54,0.00,,,0.01,WUHU216HW,2013-05-29 04:27:00,
2013-05-28 21:32:00,69.5,52.1,29.93,North,0,0.2,1.8,54,0.00,,,0.01,WUHU216HW,2013-05-29 04:32:00,
2013-05-28 21:37:00,69.3,52.4,29.92,SSE,158,0.4,1.8,55,0.00,,,0.01,WUHU216HW,2013-05-29 04:37:00,
2013-05-28 21:42:00,69.1,52.2,29.92,SE,135,2.0,2.0,55,0.00,,,0.01,WUHU216HW,2013-05-29 04:42:00,
2013-05-28 21:48:00,68.9,52.0,29.92,South,180,1.6,2.0,55,0.00,,,0.01,WUHU216HW,2013-05-29 04:48:00,
2013-05-28 21:53:00,68.8,51.9,29.92,SSW,203,1.1,1.8,55,0.00,,,0.01,WUHU216HW,2013-05-29 04:53:00,
2013-05-28 21:58:00,68.8,51.9,29.92,SSE,158,0.4,2.5,55,0.00,,,0.01,WUHU216HW,2013-05-29 04:58:00,
2013-05-28 22:03:00,68.6,51.8,29.93,SE,135,0.4,2.5,55,0.00,,,0.01,WUHU216HW,2013-05-29 05:03:00,
2013-05-28 22:08:00,68.4,52.0,29.93,SSE,158,0.9,1.8,56,0.00,,,0.01,WUHU216HW,2013-05-29 05:08:00,
2013-05-28 22:13:00,68.2,51.8,29.93,SE,135,0.9,1.8,56,0.00,,,0.01,WUHU216HW,2013-05-29 05:13:00,
2013-05-28 22:18:00,68.0,51.7,29.92,SSW,203,1.8,2.2,56,0.00,,,0.01,WUHU216HW,2013-05-29 05:18:00,
2013-05-28 22:23:00,67.9,51.6,29.92,SSE,158,1.6,2.2,56,0.00,,,0.01,WUHU216HW,2013-05-29 05:23:00,
2013-05-28 22:28:00,67.7,51.8,29.92,SSW,203,0.0,2.0,57,0.00,,,0.01,WUHU216HW,2013-05-29 05:28:00,
2013-05-28 22:33:00,67.7,51.8,29.93,SSE,158,0.4,2.0,57,0.00,,,0.01,WUHU216HW,2013-05-29 05:33:00,
2013-05-28 22:38:00,67.7,51.8,29.93,SE,135,0.4,2.0,57,0.00,,,0.01,WUHU216HW,2013-05-29 05:38:00,
2013-05-28 22:43:00,67.3,51.6,29.93,South,180,1.8,2.0,57,0.00,,,0.01,WUHU216HW,2013-05-29 05:43:00,
2013-05-28 22:48:00,67.1,51.4,29.93,South,180,0.9,2.2,57,0.00,,,0.01,WUHU216HW,2013-05-29 05:48:00,
2013-05-28 22:53:00,67.1,51.8,29.93,SE,135,0.4,2.2,58,0.00,,,0.01,WUHU216HW,2013-05-29 05:53:00,
2013-05-28 22:58:00,67.0,51.7,29.93,SE,135,0.0,2.0,58,0.00,,,0.01,WUHU216HW,2013-05-29 05:58:00,
2013-05-28 23:03:00,67.0,51.7,29.93,SE,135,0.4,1.1,58,0.00,,,0.01,WUHU216HW,2013-05-29 06:03:00,
2013-05-28 23:08:00,66.8,51.6,29.92,SSW,203,0.4,1.6,58,0.00,,,0.01,WUHU216HW,2013-05-29 06:08:00,
2013-05-28 23:14:00,66.6,51.8,29.92,SSW,203,1.6,2.7,59,0.00,,,0.01,WUHU216HW,2013-05-29 06:14:00,
2013-05-28 23:19:00,66.4,51.2,29.92,SSW,203,1.3,3.1,58,0.00,,,0.01,WUHU216HW,2013-05-29 06:19:00,
2013-05-28 23:24:00,66.2,51.6,29.92,SSW,203,2.5,3.1,59,0.00,,,0.01,WUHU216HW,2013-05-29 06:24:00,
2013-05-28 23:29:00,66.1,51.4,29.92,South,180,2.9,2.9,59,0.00,,,0.01,WUHU216HW,2013-05-29 06:29:00,
2013-05-28 23:34:00,65.9,51.2,29.92,East,90,0.2,2.9,59,0.00,,,0.01,WUHU216HW,2013-05-29 06:34:00,
2013-05-28 23:39:00,65.9,51.2,29.93,SW,225,0.4,1.8,59,0.00,,,0.01,WUHU216HW,2013-05-29 06:39:00,
2013-05-28 23:44:00,65.7,51.0,29.93,SSE,158,1.3,1.8,59,0.00,,,0.01,WUHU216HW,2013-05-29 06:44:00,
2013-05-28 23:49:00,65.3,50.7,29.93,SW,225,0.9,1.3,59,0.00,,,0.01,WUHU216HW,2013-05-29 06:49:00,
2013-05-28 23:54:00,65.2,50.9,29.92,South,180,1.1,1.6,60,0.00,,,0.01,WUHU216HW,2013-05-29 06:54:00,
2013-05-28 23:59:00,65.2,50.9,29.92,SE,135,1.1,3.4,60,0.00,,,0.01,WUHU216HW,2013-05-29 06:59:00,